Flight Track Log - Related Links

Times and Time Zones

All times are in EDT time to prevent confusion due to time zone crossing. See the N319EE flight status page for this flight to view local times or setup timezone preferences in your user account.

Time Position Orientation Groundspeed Altitude Reporting Facility
EDT Latitude Longitude Course Direction KTS MPH feet Rate Location/Type
Wed 02:21:25 PM 42.8114 -73.7789 28° Northeast 182 209 3,700  Level Boston Center
Wed 02:22:25 PM 42.7850 -73.7189 121° Southeast 219 252 5,100 1,333 Climbing Boston Center
Wed 02:22:28 PM 42.7789 -73.7131 145° Southeast 234 269 5,100 -94 Level Boston Center
Wed 02:23:29 PM 42.7228 -73.6892 163° South 282 325 5,000 -50 Descending Boston Center
Wed 02:24:29 PM 42.6497 -73.6964 184° South 260 299 5,000 763 Level Boston Center
Wed 02:25:27 PM 42.5975 -73.7122 193° South 232 267 6,500 1,613 Climbing Boston Center
Wed 02:26:28 PM 42.5328 -73.7306 192° South 218 251 8,200 1,672 Climbing Boston Center
Wed 02:27:29 PM 42.4825 -73.7464 193° South 211 243 9,900 1,736 Climbing Boston Center
Wed 02:28:29 PM 42.4197 -73.7619 190° South 211 243 11,700 1,068 Climbing Boston Center
Wed 02:29:27 PM 42.3611 -73.7803 193° South 227 261 12,000 153 Climbing Boston Center
Wed 02:30:27 PM 42.2839 -73.8039 193° South 253 291 12,000  Level Boston Center
Wed 02:31:28 PM 42.2169 -73.8108 184° South 266 306 12,000  Level Boston Center
Wed 02:32:29 PM 42.1317 -73.8147 182° South 278 320 12,000  Level Boston Center
Wed 02:33:29 PM 42.0564 -73.8158 181° South 273 314 12,000  Level Boston Center
Wed 02:34:29 PM 41.9897 -73.8200 183° South 273 314 12,000 -458 Level Boston Center
Wed 02:35:27 PM 41.9022 -73.8208 180° South 279 321 11,100 -900 Descending Boston Center
Wed 02:36:29 PM 41.8272 -73.8219 181° South 291 335 10,200 -1,100 Descending Boston Center
Wed 02:37:27 PM 41.7375 -73.8228 180° South 291 335 8,900 -1,156 Descending Boston Center
Wed 02:39:00 PM 41.6450 -73.8515 183° South  Level FlightAware Approximate
Wed 02:40:07 PM 41.5333 -73.8500 183° South 250 288 6,000  Level New York TRACON
Wed 02:41:07 PM 41.4667 -73.8667 191° South 246 283 5,600 -1,150 Descending New York TRACON
Wed 02:42:07 PM 41.4000 -73.8667 180° South 252 290 3,700 -1,300 Descending New York TRACON
Wed 02:43:07 PM 41.3500 -73.8000 135° Southeast 239 275 3,000 -350 Descending New York TRACON
Wed 02:44:07 PM 41.3000 -73.7667 153° Southeast 233 268 3,000  Level New York TRACON
Wed 02:45:07 PM 41.2500 -73.7167 143° Southeast 229 264 3,000  Level New York TRACON
Wed 02:46:07 PM 41.2000 -73.6667 143° Southeast 226 260 3,000 -450 Level New York TRACON
Wed 02:47:07 PM 41.1333 -73.6333 159° South 224 258 2,100 -500 Descending New York TRACON
Wed 02:48:07 PM 41.0833 -73.6167 166° South 213 245 2,000 -67 Descending New York TRACON
Wed 02:50:07 PM 41.0000 -73.6500 197° South 157 181 1,900 -367 Descending New York TRACON
Wed 02:51:07 PM 41.0333 -73.6833 323° Northwest 145 167 900 -1,000 Descending New York TRACON
Wed 02:53:00 PM 41.0667 -73.7000 242° Southwest  Level FlightAware Approximate
Wed 03:00:00 PM 41.0669 -73.7076 242° Southwest  Level Estimated

Login

Don't have an account? Register now (free) for customized features, flight alerts, and more!